createdAt,value
2022-12-08T00:03:28.329Z,4.05
2022-12-08T00:11:04.072Z,4.00
2022-12-08T00:18:38.475Z,4.10
2022-12-08T00:26:13.511Z,3.83
2022-12-08T00:33:47.338Z,4.78
2022-12-08T00:41:44.479Z,4.70
2022-12-08T00:49:18.875Z,4.38
2022-12-08T00:56:54.674Z,4.50
2022-12-08T01:04:28.618Z,4.05
2022-12-08T01:12:03.831Z,4.22
2022-12-08T01:19:38.933Z,4.13
2022-12-08T01:27:16.581Z,3.63
2022-12-08T01:34:50.320Z,3.15
2022-12-08T01:42:26.399Z,4.20
2022-12-08T01:50:01.582Z,3.33
2022-12-08T01:57:43.559Z,3.65
2022-12-08T02:05:19.411Z,4.75
2022-12-08T02:12:56.898Z,4.22
2022-12-08T02:20:43.082Z,4.63
2022-12-08T02:28:45.833Z,4.78
2022-12-08T02:36:25.367Z,4.50
2022-12-08T02:44:06.621Z,4.45
2022-12-08T02:51:42.057Z,4.93
2022-12-08T02:59:34.961Z,5.10
2022-12-08T03:07:16.126Z,5.45
2022-12-08T03:14:55.084Z,4.75
2022-12-08T03:22:30.545Z,4.40
2022-12-08T03:30:05.299Z,3.65
2022-12-08T03:37:41.690Z,3.65
2022-12-08T03:45:15.589Z,3.60
2022-12-08T03:52:50.923Z,5.07
2022-12-08T04:00:25.407Z,4.93
2022-12-08T04:08:01.288Z,5.93
2022-12-08T04:15:35.494Z,6.15
2022-12-08T04:30:46.631Z,7.90
2022-12-08T04:38:21.889Z,7.35
2022-12-08T04:45:55.633Z,7.85
2022-12-08T04:53:30.757Z,8.10
2022-12-08T05:01:04.801Z,8.00
2022-12-08T05:08:40.233Z,8.80
2022-12-08T05:16:15.938Z,9.43
2022-12-08T05:23:51.292Z,9.60
2022-12-08T05:31:26.485Z,8.25
2022-12-08T05:39:01.744Z,9.23
2022-12-08T05:46:35.877Z,9.85
2022-12-08T05:54:11.292Z,8.93
2022-12-08T06:01:46.171Z,9.68
2022-12-08T06:09:21.930Z,8.82
2022-12-08T06:16:55.999Z,9.45
2022-12-08T06:24:31.435Z,9.02
2022-12-08T06:32:05.695Z,9.20
2022-12-08T06:39:41.102Z,9.82
2022-12-08T06:47:15.184Z,9.43
2022-12-08T06:54:50.513Z,9.65
2022-12-08T07:02:25.406Z,9.05
2022-12-08T07:10:00.735Z,8.90
2022-12-08T07:17:34.636Z,10.13
2022-12-08T07:25:10.614Z,10.45
2022-12-08T07:32:44.807Z,10.07
2022-12-08T07:40:20.262Z,9.30
2022-12-08T07:47:54.161Z,9.18
2022-12-08T07:55:29.438Z,10.38
2022-12-08T08:03:04.045Z,9.05
2022-12-08T08:10:39.349Z,9.50
2022-12-08T08:18:13.269Z,9.25
2022-12-08T08:25:48.775Z,9.60
2022-12-08T08:33:23.119Z,9.88
2022-12-08T08:48:33.141Z,10.93
2022-12-08T08:56:12.285Z,10.77
2022-12-08T09:03:48.082Z,10.80
2022-12-08T09:11:24.366Z,10.80
2022-12-08T09:18:58.294Z,10.30
2022-12-08T09:26:33.613Z,10.48
2022-12-08T09:34:07.599Z,10.30
2022-12-08T09:41:50.056Z,11.57
2022-12-08T09:49:28.063Z,10.70
2022-12-08T09:57:08.700Z,10.32
2022-12-08T10:04:43.609Z,9.52
2022-12-08T10:12:27.283Z,11.55
2022-12-08T10:20:07.855Z,10.27
2022-12-08T10:27:43.272Z,9.25
2022-12-08T10:35:18.959Z,9.43
2022-12-08T10:42:57.414Z,10.32
2022-12-08T10:50:34.510Z,10.43
2022-12-08T10:58:25.041Z,8.52
2022-12-08T11:06:08.969Z,8.35
2022-12-08T11:13:46.011Z,9.48
2022-12-08T11:21:21.093Z,9.32
2022-12-08T11:28:57.325Z,9.23
2022-12-08T11:36:36.888Z,8.77
2022-12-08T11:44:27.050Z,8.43
2022-12-08T11:52:05.371Z,9.00
2022-12-08T11:59:44.463Z,9.13
2022-12-08T12:07:50.746Z,7.68
2022-12-08T12:15:47.485Z,8.05
2022-12-08T12:23:25.492Z,8.80
2022-12-08T12:31:04.277Z,8.80
2022-12-08T12:38:58.169Z,8.02
2022-12-08T12:46:56.991Z,8.02
2022-12-08T12:54:31.061Z,8.73
2022-12-08T13:02:20.681Z,8.23
2022-12-08T13:10:01.910Z,8.73
2022-12-08T13:17:38.814Z,9.90
2022-12-08T13:26:01.719Z,9.10
2022-12-08T13:33:40.847Z,9.52
2022-12-08T13:41:19.608Z,9.60
2022-12-08T13:57:11.973Z,9.25
2022-12-08T14:12:46.848Z,9.80
2022-12-08T14:20:25.609Z,8.82
2022-12-08T14:28:02.835Z,7.20
2022-12-08T14:35:39.890Z,6.47
2022-12-08T14:43:19.608Z,6.30
2022-12-08T14:51:02.897Z,6.30
2022-12-08T14:58:36.881Z,6.45
2022-12-08T15:06:12.238Z,6.63
2022-12-08T15:13:48.087Z,7.43
2022-12-08T15:21:31.746Z,6.93
2022-12-08T15:29:12.824Z,7.45
2022-12-08T15:36:48.524Z,6.75
2022-12-08T15:44:23.230Z,6.95
2022-12-08T15:59:50.425Z,6.18
2022-12-08T16:07:28.376Z,7.43
2022-12-08T16:15:48.635Z,7.68
2022-12-08T16:23:13.040Z,6.68
2022-12-08T16:30:51.886Z,7.10
2022-12-08T16:38:27.504Z,8.10
2022-12-08T16:46:01.585Z,7.97
2022-12-08T16:53:36.936Z,7.60
2022-12-08T17:01:13.382Z,7.55
2022-12-08T17:08:48.978Z,8.30
2022-12-08T17:16:23.366Z,8.55
2022-12-08T17:24:00.101Z,8.35
2022-12-08T17:31:34.362Z,10.02
2022-12-08T17:39:13.434Z,9.13
2022-12-08T17:46:53.219Z,8.82
2022-12-08T17:54:29.980Z,8.75
2022-12-08T18:02:04.601Z,9.25
2022-12-08T18:09:40.077Z,7.85
2022-12-08T18:17:14.353Z,9.45
2022-12-08T18:24:50.228Z,8.90
2022-12-08T18:32:24.355Z,9.10
2022-12-08T18:39:59.648Z,10.50
2022-12-08T18:47:34.276Z,9.82
2022-12-08T18:55:11.015Z,9.82
2022-12-08T19:02:45.258Z,9.57
2022-12-08T19:17:54.570Z,9.77
2022-12-08T19:25:29.944Z,9.95
2022-12-08T19:33:03.773Z,10.18
2022-12-08T19:40:59.558Z,12.13
2022-12-08T19:48:33.706Z,11.07
2022-12-08T19:56:09.719Z,11.52
2022-12-08T20:03:44.944Z,13.13
2022-12-08T20:11:21.144Z,11.60
2022-12-08T20:18:55.645Z,11.55
2022-12-08T20:26:33.903Z,12.00
2022-12-08T20:34:13.582Z,10.60
2022-12-08T20:41:49.321Z,10.20
2022-12-08T20:49:26.329Z,10.73
2022-12-08T20:57:05.486Z,11.23
2022-12-08T21:04:39.523Z,12.13
2022-12-08T21:12:14.804Z,11.32
2022-12-08T21:19:49.090Z,11.18
2022-12-08T21:34:58.760Z,11.82
2022-12-08T21:42:46.179Z,11.13
2022-12-08T21:50:20.639Z,12.18
2022-12-08T22:05:31.209Z,11.60
2022-12-08T22:13:06.575Z,12.88
2022-12-08T22:20:44.102Z,12.13
2022-12-08T22:28:19.685Z,12.80
2022-12-08T22:35:57.483Z,11.75
2022-12-08T22:43:32.867Z,12.13
2022-12-08T22:51:08.094Z,11.98
2022-12-08T22:58:44.484Z,12.23
2022-12-08T23:06:19.174Z,12.70
2022-12-08T23:13:56.247Z,14.75
2022-12-08T23:21:31.109Z,15.82
2022-12-08T23:29:06.417Z,16.83
2022-12-08T23:36:40.368Z,18.52
2022-12-08T23:44:15.509Z,20.13
2022-12-08T23:51:50.387Z,18.73
2022-12-08T23:59:25.600Z,17.60
